createdAt,value
2022-11-04T00:02:08.459Z,9.90
2022-11-04T00:04:36.428Z,9.90
2022-11-04T00:07:23.144Z,10.00
2022-11-04T00:09:49.916Z,10.00
2022-11-04T00:12:25.645Z,9.90
2022-11-04T00:14:52.476Z,9.90
2022-11-04T00:17:19.448Z,10.00
2022-11-04T00:20:06.459Z,9.90
2022-11-04T00:22:51.828Z,9.80
2022-11-04T00:25:37.598Z,9.80
2022-11-04T00:28:41.503Z,9.90
2022-11-04T00:31:28.030Z,9.80
2022-11-04T00:33:57.283Z,9.80
2022-11-04T00:36:25.705Z,9.80
2022-11-04T00:38:53.394Z,9.80
2022-11-04T00:41:27.174Z,9.80
2022-11-04T00:43:59.102Z,9.80
2022-11-04T00:46:27.266Z,9.90
2022-11-04T00:48:54.263Z,9.90
2022-11-04T00:51:21.838Z,9.90
2022-11-04T00:53:49.483Z,10.00
2022-11-04T00:56:16.843Z,9.90
2022-11-04T00:58:43.780Z,9.90
2022-11-04T01:01:12.554Z,9.90
2022-11-04T01:03:39.892Z,10.00
2022-11-04T01:06:07.036Z,10.00
2022-11-04T01:08:34.573Z,10.00
2022-11-04T01:11:03.139Z,10.00
2022-11-04T01:13:30.760Z,9.90
2022-11-04T01:16:02.257Z,9.70
2022-11-04T01:18:29.441Z,9.80
2022-11-04T01:21:00.659Z,9.70
2022-11-04T01:23:27.765Z,9.90
2022-11-04T01:25:54.524Z,9.80
2022-11-04T01:28:21.331Z,9.80
2022-11-04T01:30:48.165Z,9.70
2022-11-04T01:33:14.954Z,9.70
2022-11-04T01:35:41.817Z,9.70
2022-11-04T01:38:09.019Z,9.70
2022-11-04T01:40:40.566Z,9.70
2022-11-04T01:43:15.907Z,9.70
2022-11-04T01:45:45.348Z,9.60
2022-11-04T01:48:22.406Z,9.70
2022-11-04T01:50:51.403Z,9.60
2022-11-04T01:53:29.105Z,9.70
2022-11-04T01:55:58.696Z,9.60
2022-11-04T01:58:29.902Z,9.60
2022-11-04T02:00:56.932Z,9.60
2022-11-04T02:03:34.829Z,9.60
2022-11-04T02:06:02.878Z,9.60
2022-11-04T02:08:30.134Z,9.60
2022-11-04T02:11:01.755Z,9.70
2022-11-04T02:13:31.380Z,9.70
2022-11-04T02:16:19.513Z,9.60
2022-11-04T02:19:13.293Z,9.60
2022-11-04T02:21:42.903Z,9.60
2022-11-04T02:24:21.878Z,9.60
2022-11-04T02:27:14.584Z,9.60
2022-11-04T02:30:00.014Z,9.60
2022-11-04T02:32:51.392Z,9.60
2022-11-04T02:35:30.125Z,9.50
2022-11-04T02:38:05.825Z,9.60
2022-11-04T02:41:04.478Z,9.60
2022-11-04T02:43:46.264Z,9.60
2022-11-04T02:46:34.550Z,9.60
2022-11-04T02:49:27.715Z,9.60
2022-11-04T02:52:08.265Z,9.70
2022-11-04T02:55:00.568Z,9.60
2022-11-04T02:57:31.981Z,9.60
2022-11-04T03:00:03.703Z,9.60
2022-11-04T03:02:36.060Z,9.70
2022-11-04T03:05:08.326Z,9.60
2022-11-04T03:07:37.831Z,9.60
2022-11-04T03:10:11.156Z,9.60
2022-11-04T03:12:42.568Z,9.60
2022-11-04T03:15:14.879Z,9.70
2022-11-04T03:17:46.779Z,9.70
2022-11-04T03:20:20.951Z,9.70
2022-11-04T03:22:47.989Z,9.70
2022-11-04T03:25:15.214Z,9.70
2022-11-04T03:28:18.720Z,9.60
2022-11-04T03:30:51.263Z,9.60
2022-11-04T03:33:47.506Z,9.60
2022-11-04T03:36:14.674Z,9.60
2022-11-04T03:38:41.518Z,9.60
2022-11-04T03:41:16.571Z,9.60
2022-11-04T03:43:43.349Z,9.60
2022-11-04T03:46:10.888Z,9.50
2022-11-04T03:48:38.006Z,9.60
2022-11-04T03:51:04.891Z,9.50
2022-11-04T03:53:32.238Z,9.40
2022-11-04T03:56:32.154Z,9.40
2022-11-04T03:59:04.603Z,9.40
2022-11-04T04:01:53.130Z,9.50
2022-11-04T04:04:25.852Z,9.50
2022-11-04T04:06:59.116Z,9.50
2022-11-04T04:09:34.523Z,9.50
2022-11-04T04:12:05.582Z,9.50
2022-11-04T04:14:50.319Z,9.60
2022-11-04T04:17:39.791Z,9.50
2022-11-04T04:20:15.200Z,9.40
2022-11-04T04:22:52.532Z,9.40
2022-11-04T04:25:39.633Z,9.40
2022-11-04T04:28:07.696Z,9.40
2022-11-04T04:30:35.315Z,9.40
2022-11-04T04:33:11.309Z,9.40
2022-11-04T04:35:49.258Z,9.40
2022-11-04T04:38:40.282Z,9.40
2022-11-04T04:41:50.020Z,9.30
2022-11-04T04:44:47.020Z,9.40
2022-11-04T04:47:20.117Z,9.40
2022-11-04T04:50:01.174Z,9.40
2022-11-04T04:52:31.983Z,9.30
2022-11-04T04:54:59.076Z,9.30
2022-11-04T04:57:25.872Z,9.40
2022-11-04T04:59:52.652Z,9.40
2022-11-04T05:02:19.521Z,9.40
2022-11-04T05:04:46.457Z,9.30
2022-11-04T05:07:13.520Z,9.40
2022-11-04T05:09:40.254Z,9.40
2022-11-04T05:12:07.464Z,9.40
2022-11-04T05:14:34.284Z,9.40
2022-11-04T05:17:01.210Z,9.40
2022-11-04T05:19:28.268Z,9.50
2022-11-04T05:21:55.008Z,9.40
2022-11-04T05:24:21.754Z,9.40
2022-11-04T05:26:48.608Z,9.40
2022-11-04T05:31:47.141Z,9.40
2022-11-04T05:34:14.282Z,9.40
2022-11-04T05:36:41.111Z,9.50
2022-11-04T05:39:11.155Z,9.40
2022-11-04T05:41:37.939Z,9.40
2022-11-04T05:44:04.823Z,9.30
2022-11-04T05:46:31.857Z,9.30
2022-11-04T05:48:58.745Z,9.30
2022-11-04T05:51:28.687Z,9.40
2022-11-04T05:53:55.451Z,9.30
2022-11-04T05:56:22.343Z,9.40
2022-11-04T05:58:49.139Z,9.40
2022-11-04T06:01:25.029Z,9.40
2022-11-04T06:03:52.251Z,9.40
2022-11-04T06:06:19.549Z,9.50
2022-11-04T06:08:46.374Z,9.50
2022-11-04T06:11:13.126Z,9.40
2022-11-04T06:13:39.876Z,9.40
2022-11-04T06:16:07.355Z,9.50
2022-11-04T06:18:34.283Z,9.60
2022-11-04T06:21:14.606Z,9.60
2022-11-04T06:23:42.039Z,9.60
2022-11-04T06:26:09.404Z,9.60
2022-11-04T06:28:36.218Z,9.70
2022-11-04T06:31:04.875Z,9.70
2022-11-04T06:33:36.521Z,9.80
2022-11-04T06:36:06.661Z,9.90
2022-11-04T06:38:37.458Z,9.70
2022-11-04T06:43:37.558Z,9.90
2022-11-04T06:46:04.840Z,9.90
2022-11-04T06:48:32.389Z,9.90
2022-11-04T06:51:00.635Z,9.80
2022-11-04T06:53:29.170Z,9.90
2022-11-04T06:56:04.271Z,10.00
2022-11-04T06:58:31.094Z,9.90
2022-11-04T07:00:57.942Z,10.00
2022-11-04T07:03:24.773Z,10.10
2022-11-04T07:05:51.567Z,10.20
2022-11-04T07:08:18.887Z,10.20
2022-11-04T07:10:45.683Z,10.30
2022-11-04T07:13:12.773Z,10.40
2022-11-04T07:15:40.386Z,10.30
2022-11-04T07:18:07.533Z,10.40
2022-11-04T07:20:36.600Z,10.50
2022-11-04T07:23:03.386Z,10.40
2022-11-04T07:25:30.643Z,10.50
2022-11-04T07:28:01.081Z,10.50
2022-11-04T07:30:29.486Z,10.40
2022-11-04T07:32:56.386Z,10.40
2022-11-04T07:35:23.146Z,10.50
2022-11-04T07:37:49.897Z,10.50
2022-11-04T07:40:16.836Z,10.60
2022-11-04T07:42:43.616Z,10.60
2022-11-04T07:45:11.093Z,10.50
2022-11-04T07:47:37.978Z,10.50
2022-11-04T07:50:09.777Z,10.40
2022-11-04T07:52:38.226Z,10.40
2022-11-04T07:55:05.692Z,10.30
2022-11-04T07:57:32.478Z,10.40
2022-11-04T07:59:59.662Z,10.40
2022-11-04T08:02:31.072Z,10.60
2022-11-04T08:05:00.897Z,10.70
2022-11-04T08:07:27.745Z,10.80
2022-11-04T08:09:54.529Z,10.90
2022-11-04T08:12:23.833Z,11.00
2022-11-04T08:14:51.116Z,11.10
2022-11-04T08:17:17.922Z,11.30
2022-11-04T08:19:44.841Z,11.20
2022-11-04T08:22:11.655Z,11.40
2022-11-04T08:24:38.440Z,11.50
2022-11-04T08:27:07.755Z,11.50
2022-11-04T08:29:34.932Z,11.40
2022-11-04T08:32:01.893Z,11.50
2022-11-04T08:34:29.170Z,11.50
2022-11-04T08:36:57.623Z,11.50
2022-11-04T08:39:24.695Z,11.50
2022-11-04T08:41:53.448Z,11.50
2022-11-04T08:44:21.156Z,11.50
2022-11-04T08:46:48.144Z,11.60
2022-11-04T08:49:20.642Z,11.50
2022-11-04T08:51:54.927Z,11.50
2022-11-04T08:54:22.066Z,11.40
2022-11-04T08:56:49.153Z,11.40
2022-11-04T08:59:15.920Z,11.30
2022-11-04T09:01:43.058Z,11.20
2022-11-04T09:04:12.179Z,11.00
2022-11-04T09:06:42.100Z,11.00
2022-11-04T09:09:11.703Z,11.00
2022-11-04T09:11:41.108Z,11.00
2022-11-04T09:14:08.782Z,11.00
2022-11-04T09:16:37.153Z,10.90
2022-11-04T09:19:04.011Z,10.80
2022-11-04T09:21:31.033Z,10.80
2022-11-04T09:23:57.849Z,10.80
2022-11-04T09:26:25.709Z,10.70
2022-11-04T09:28:56.677Z,10.70
2022-11-04T09:31:24.254Z,10.60
2022-11-04T09:33:51.662Z,10.60
2022-11-04T09:36:18.520Z,10.70
2022-11-04T09:38:45.423Z,10.80
2022-11-04T09:41:28.514Z,10.80
2022-11-04T09:44:11.892Z,10.80
2022-11-04T09:46:39.748Z,10.80
2022-11-04T09:49:10.208Z,10.80
2022-11-04T09:51:53.892Z,10.90
2022-11-04T09:54:29.265Z,10.90
2022-11-04T09:56:59.250Z,10.80
2022-11-04T09:59:32.896Z,10.90
2022-11-04T10:02:19.179Z,10.90
2022-11-04T10:04:57.546Z,10.90
2022-11-04T10:07:24.345Z,10.80
2022-11-04T10:10:09.538Z,10.80
2022-11-04T10:13:08.082Z,10.90
2022-11-04T10:16:05.458Z,11.00
2022-11-04T10:19:07.845Z,11.00
2022-11-04T10:21:46.034Z,10.90
2022-11-04T10:24:15.888Z,10.80
2022-11-04T10:27:19.179Z,10.80
2022-11-04T10:30:03.614Z,10.90
2022-11-04T10:32:52.821Z,11.00
2022-11-04T10:35:44.518Z,10.90
2022-11-04T10:38:17.621Z,10.90
2022-11-04T10:40:49.048Z,11.00
2022-11-04T10:43:26.031Z,11.00
2022-11-04T10:46:23.413Z,11.10
2022-11-04T10:49:31.829Z,11.00
2022-11-04T10:51:58.968Z,11.10
2022-11-04T10:54:26.911Z,10.90
2022-11-04T10:56:55.823Z,10.90
2022-11-04T10:59:36.957Z,10.80
2022-11-04T11:02:04.453Z,10.80
2022-11-04T11:04:36.845Z,10.70
2022-11-04T11:07:06.476Z,10.70
2022-11-04T11:09:43.381Z,10.60
2022-11-04T11:12:44.301Z,10.50
2022-11-04T11:14:59.908Z,10.60
2022-11-04T11:17:38.480Z,10.70
2022-11-04T11:20:22.638Z,10.60
2022-11-04T11:22:55.055Z,10.70
2022-11-04T11:25:32.838Z,10.60
2022-11-04T11:28:02.413Z,10.70
2022-11-04T11:30:34.417Z,10.60
2022-11-04T11:33:47.647Z,10.60
2022-11-04T11:36:21.866Z,10.60
2022-11-04T11:39:17.723Z,10.70
2022-11-04T11:42:06.431Z,10.70
2022-11-04T11:44:44.249Z,10.60
2022-11-04T11:47:25.675Z,10.70
2022-11-04T11:50:04.611Z,10.60
2022-11-04T11:52:38.475Z,10.60
2022-11-04T11:55:27.331Z,10.70
2022-11-04T12:01:34.186Z,10.90
2022-11-04T12:10:01.100Z,10.60
2022-11-04T12:12:52.786Z,10.60
2022-11-04T12:15:34.882Z,10.70
2022-11-04T12:18:40.678Z,10.60
2022-11-04T12:21:16.024Z,10.50
2022-11-04T12:23:51.025Z,10.50
2022-11-04T12:26:42.576Z,10.50
2022-11-04T12:29:29.845Z,10.60
2022-11-04T12:32:17.742Z,10.50
2022-11-04T12:35:16.878Z,10.40
2022-11-04T12:38:20.632Z,10.40
2022-11-04T12:41:27.733Z,10.40
2022-11-04T12:43:56.204Z,10.40
2022-11-04T12:46:27.816Z,10.40
2022-11-04T12:49:13.704Z,10.40
2022-11-04T12:52:04.563Z,10.30
2022-11-04T12:54:54.404Z,10.20
2022-11-04T12:57:43.265Z,10.20
2022-11-04T13:00:16.822Z,10.30
2022-11-04T13:02:50.339Z,10.30
2022-11-04T13:05:25.781Z,10.30
2022-11-04T13:08:13.769Z,10.20
2022-11-04T13:10:58.696Z,10.30
2022-11-04T13:13:43.799Z,10.20
2022-11-04T13:16:12.024Z,10.20
2022-11-04T13:18:41.115Z,10.20
2022-11-04T13:21:14.147Z,10.20
2022-11-04T13:24:05.017Z,10.10
2022-11-04T13:26:32.352Z,10.10
2022-11-04T13:29:12.220Z,10.10
2022-11-04T13:31:45.174Z,10.10
2022-11-04T13:34:17.940Z,10.10
2022-11-04T13:37:08.714Z,10.10
2022-11-04T13:39:41.902Z,10.00
2022-11-04T13:42:17.795Z,10.00
2022-11-04T13:44:45.845Z,10.00
2022-11-04T13:47:24.828Z,10.00
2022-11-04T13:49:55.379Z,9.90
2022-11-04T13:52:30.192Z,9.90
2022-11-04T13:55:04.254Z,9.80
2022-11-04T13:57:42.705Z,9.90
2022-11-04T14:00:15.195Z,9.90
2022-11-04T14:02:46.087Z,10.00
2022-11-04T14:05:28.331Z,10.10
2022-11-04T14:08:01.372Z,10.10
2022-11-04T14:10:50.067Z,10.10
2022-11-04T14:13:33.547Z,10.10
2022-11-04T14:16:34.854Z,10.00
2022-11-04T14:19:42.253Z,9.90
2022-11-04T14:22:15.684Z,9.80
2022-11-04T14:24:42.950Z,9.80
2022-11-04T14:27:41.261Z,9.80
2022-11-04T14:30:30.858Z,9.70
2022-11-04T14:33:01.307Z,9.80
2022-11-04T14:35:30.018Z,9.70
2022-11-04T14:37:59.154Z,9.90
2022-11-04T14:40:46.208Z,9.90
2022-11-04T14:43:35.137Z,9.80
2022-11-04T14:46:02.657Z,9.80
2022-11-04T14:48:30.946Z,9.90
2022-11-04T14:50:58.469Z,9.90
2022-11-04T14:53:38.151Z,9.70
2022-11-04T14:56:23.965Z,9.70
2022-11-04T14:58:55.857Z,9.70
2022-11-04T15:01:26.528Z,9.80
2022-11-04T15:04:13.013Z,9.80
2022-11-04T15:06:54.437Z,9.80
2022-11-04T15:09:25.397Z,9.80
2022-11-04T15:12:32.057Z,9.80
2022-11-04T15:15:00.659Z,9.90
2022-11-04T15:17:31.294Z,9.80
2022-11-04T15:20:00.823Z,9.80
2022-11-04T15:22:29.299Z,9.70
2022-11-04T15:24:59.527Z,9.70
2022-11-04T15:27:29.836Z,9.70
2022-11-04T15:30:05.353Z,9.70
2022-11-04T15:32:32.241Z,9.80
2022-11-04T15:34:59.613Z,9.80
2022-11-04T15:37:28.895Z,9.80
2022-11-04T15:39:58.138Z,9.80
2022-11-04T15:42:37.038Z,9.80
2022-11-04T15:45:22.388Z,9.80
2022-11-04T15:47:50.808Z,9.80
2022-11-04T15:50:25.920Z,9.70
2022-11-04T15:52:55.761Z,9.80
2022-11-04T15:55:25.412Z,9.80
2022-11-04T15:57:53.180Z,9.70
2022-11-04T16:00:30.444Z,9.80
2022-11-04T16:02:59.630Z,9.90
2022-11-04T16:05:37.115Z,9.80
2022-11-04T16:08:27.623Z,9.90
2022-11-04T16:11:15.393Z,9.90
2022-11-04T16:13:42.923Z,9.90
2022-11-04T16:16:24.789Z,9.80
2022-11-04T16:18:59.383Z,9.70
2022-11-04T16:21:31.724Z,9.70
2022-11-04T16:24:06.207Z,9.60
2022-11-04T16:26:39.323Z,9.70
2022-11-04T16:29:09.801Z,9.70
2022-11-04T16:31:37.625Z,9.70
2022-11-04T16:34:06.016Z,9.60
2022-11-04T16:36:35.918Z,9.60
2022-11-04T16:39:08.135Z,9.70
2022-11-04T16:41:38.544Z,9.60
2022-11-04T16:44:14.801Z,9.60
2022-11-04T16:46:41.712Z,9.60
2022-11-04T16:49:10.800Z,9.60
2022-11-04T16:51:37.629Z,9.70
2022-11-04T16:54:04.528Z,9.70
2022-11-04T16:56:33.309Z,9.70
2022-11-04T16:59:00.232Z,9.60
2022-11-04T17:01:27.746Z,9.70
2022-11-04T17:03:54.641Z,9.60
2022-11-04T17:06:21.387Z,9.60
2022-11-04T17:08:48.200Z,9.60
2022-11-04T17:11:15.123Z,9.50
2022-11-04T17:13:42.144Z,9.50
2022-11-04T17:16:13.252Z,9.50
2022-11-04T17:18:40.034Z,9.50
2022-11-04T17:21:09.607Z,9.60
2022-11-04T17:23:36.766Z,9.50
2022-11-04T17:26:03.802Z,9.60
2022-11-04T17:28:32.975Z,9.50
2022-11-04T17:31:01.484Z,9.50
2022-11-04T17:33:28.231Z,9.60
2022-11-04T17:35:55.178Z,9.50
2022-11-04T17:38:22.238Z,9.50
2022-11-04T17:41:07.742Z,9.60
2022-11-04T17:43:53.192Z,9.50
2022-11-04T17:46:35.354Z,9.50
2022-11-04T17:49:13.292Z,9.60
2022-11-04T17:51:41.596Z,9.60
2022-11-04T17:54:09.430Z,9.60
2022-11-04T17:56:37.235Z,9.60
2022-11-04T17:59:04.754Z,9.60
2022-11-04T18:01:33.454Z,9.60
2022-11-04T18:04:00.372Z,9.50
2022-11-04T18:06:30.914Z,9.50
2022-11-04T18:08:59.133Z,9.60
2022-11-04T18:11:46.636Z,9.50
2022-11-04T18:14:16.811Z,9.50
2022-11-04T18:16:46.305Z,9.50
2022-11-04T18:19:14.084Z,9.50
2022-11-04T18:21:40.919Z,9.50
2022-11-04T18:24:08.115Z,9.40
2022-11-04T18:26:35.182Z,9.50
2022-11-04T18:29:03.544Z,9.50
2022-11-04T18:31:33.199Z,9.50
2022-11-04T18:34:01.950Z,9.50
2022-11-04T18:36:30.300Z,9.50
2022-11-04T18:38:57.365Z,9.50
2022-11-04T18:41:24.256Z,9.50
2022-11-04T18:43:51.013Z,9.40
2022-11-04T18:46:17.972Z,9.50
2022-11-04T18:48:49.329Z,9.60
2022-11-04T18:51:19.195Z,9.60
2022-11-04T18:53:46.800Z,9.60
2022-11-04T18:56:16.859Z,9.70
2022-11-04T18:58:46.866Z,9.60
2022-11-04T19:01:22.503Z,9.50
2022-11-04T19:03:50.875Z,9.40
2022-11-04T19:06:20.296Z,9.30
2022-11-04T19:08:48.136Z,9.20
2022-11-04T19:11:20.989Z,9.30
2022-11-04T19:13:52.532Z,9.30
2022-11-04T19:16:20.265Z,9.40
2022-11-04T19:18:49.776Z,9.40
2022-11-04T19:21:24.308Z,9.30
2022-11-04T19:23:51.363Z,9.30
2022-11-04T19:26:24.450Z,9.50
2022-11-04T19:28:51.934Z,9.50
2022-11-04T19:31:27.153Z,9.40
2022-11-04T19:33:55.115Z,9.40
2022-11-04T19:36:23.279Z,9.30
2022-11-04T19:38:55.121Z,9.20
2022-11-04T19:41:41.759Z,9.30
2022-11-04T19:44:15.852Z,9.30
2022-11-04T19:46:43.113Z,9.40
2022-11-04T19:49:10.695Z,9.30
2022-11-04T19:51:37.815Z,9.30
2022-11-04T19:54:05.406Z,9.30
2022-11-04T19:56:33.730Z,9.40
2022-11-04T19:59:05.859Z,9.40
2022-11-04T20:01:34.492Z,9.30
2022-11-04T20:04:02.968Z,9.30
2022-11-04T20:06:32.275Z,9.50
2022-11-04T20:09:05.277Z,9.40
2022-11-04T20:11:33.483Z,9.30
2022-11-04T20:14:06.514Z,9.30
2022-11-04T20:16:39.524Z,9.30
2022-11-04T20:19:06.921Z,9.30
2022-11-04T20:21:36.086Z,9.30
2022-11-04T20:24:05.961Z,9.40
2022-11-04T20:26:36.984Z,9.20
2022-11-04T20:29:04.443Z,9.20
2022-11-04T20:31:34.087Z,9.30
2022-11-04T20:34:05.013Z,9.40
2022-11-04T20:36:33.186Z,9.30
2022-11-04T20:39:06.249Z,9.10
2022-11-04T20:41:33.619Z,9.10
2022-11-04T20:44:00.406Z,9.10
2022-11-04T20:46:31.622Z,9.20
2022-11-04T20:48:59.172Z,9.20
2022-11-04T20:51:32.307Z,9.10
2022-11-04T20:54:02.003Z,9.10
2022-11-04T20:56:32.099Z,9.30
2022-11-04T20:59:00.320Z,9.10
2022-11-04T21:01:34.142Z,9.10
2022-11-04T21:04:03.679Z,9.00
2022-11-04T21:06:31.241Z,9.00
2022-11-04T21:08:59.279Z,9.10
2022-11-04T21:11:31.935Z,9.00
2022-11-04T21:13:59.693Z,9.00
2022-11-04T21:16:26.845Z,9.00
2022-11-04T21:18:54.518Z,9.10
2022-11-04T21:21:21.404Z,9.10
2022-11-04T21:23:48.715Z,9.10
2022-11-04T21:26:27.923Z,9.10
2022-11-04T21:28:56.382Z,8.90
2022-11-04T21:31:24.109Z,8.90
2022-11-04T21:33:52.062Z,8.90
2022-11-04T21:36:20.081Z,8.90
2022-11-04T21:38:47.251Z,8.90
2022-11-04T21:41:28.121Z,8.90
2022-11-04T21:44:03.053Z,8.90
2022-11-04T21:46:31.982Z,8.80
2022-11-04T21:48:59.440Z,8.80
2022-11-04T21:51:29.509Z,8.70
2022-11-04T21:53:57.127Z,8.70
2022-11-04T21:56:26.096Z,8.60
2022-11-04T21:58:53.985Z,8.60
2022-11-04T22:01:29.953Z,8.50
2022-11-04T22:03:59.831Z,8.40
2022-11-04T22:06:34.530Z,8.30
2022-11-04T22:09:02.457Z,8.30
2022-11-04T22:11:31.892Z,8.20
2022-11-04T22:14:04.656Z,8.20
2022-11-04T22:16:33.940Z,8.20
2022-11-04T22:19:03.540Z,8.30
2022-11-04T22:21:31.486Z,8.20
2022-11-04T22:23:59.468Z,8.10
2022-11-04T22:26:28.596Z,8.10
2022-11-04T22:28:56.456Z,8.20
2022-11-04T22:31:26.234Z,8.10
2022-11-04T22:33:53.988Z,8.00
2022-11-04T22:36:20.994Z,8.00
2022-11-04T22:38:47.770Z,8.00
2022-11-04T22:41:18.177Z,7.90
2022-11-04T22:43:45.004Z,8.00
2022-11-04T22:46:14.939Z,7.90
2022-11-04T22:48:41.718Z,7.90
2022-11-04T22:51:09.878Z,7.90
2022-11-04T22:53:37.672Z,8.00
2022-11-04T22:56:06.528Z,8.10
2022-11-04T22:58:33.499Z,8.10
2022-11-04T23:01:03.862Z,8.00
2022-11-04T23:03:30.887Z,8.00
2022-11-04T23:05:59.425Z,8.10
2022-11-04T23:08:28.838Z,8.10
2022-11-04T23:11:19.671Z,8.00
2022-11-04T23:14:19.753Z,7.80
2022-11-04T23:17:08.048Z,7.80
2022-11-04T23:19:35.031Z,7.70
2022-11-04T23:22:20.703Z,7.70
2022-11-04T23:25:06.120Z,7.80
2022-11-04T23:28:09.469Z,7.80
2022-11-04T23:30:42.800Z,7.60
2022-11-04T23:33:12.380Z,7.50
2022-11-04T23:36:04.122Z,7.40
2022-11-04T23:38:31.925Z,7.10
2022-11-04T23:41:19.905Z,7.00
2022-11-04T23:43:47.196Z,6.90
2022-11-04T23:46:35.415Z,6.80
2022-11-04T23:49:23.656Z,6.80
2022-11-04T23:52:08.869Z,6.70
2022-11-04T23:54:54.433Z,6.70
2022-11-04T23:57:40.009Z,6.60
